Astol — 9LD2250 — position and weather

sailwx.info

Track history (hours):
 
Tides and Currents Weather Stations Pressure Air Temp Water Temp Dewpoint Dewpoint Depression Visibility Wind Speed Wind Dir Waves Ship Positions

Astol

Last reported at 2018-May-22 06:05 UTC. Time now 2018-Jun-18 17:36 UTC.
Position N 44°47' E 036°26'.
Warning: this ship's position is 27 days out of date.

Length 114 m; draft 3.9 m.

Type: Cargo ship. MMSI: 667949000.

Date/timePositionNaut miles runAvg speedWind from/ knotsBaromVisibWave heightAir tempDewpointWater temp
2018-May-22 06:05N 44°47' E 036°26'1 7.9
2018-May-22 06:00N 44°48' E 036°27'9 7.9
2018-May-22 04:54N 44°56' E 036°29'4 8.1
2018-May-22 04:27N 45°00' E 036°29'4 8.1
2018-May-22 03:56N 45°04' E 036°30'4 7.9
2018-May-22 03:24N 45°08' E 036°29'3 7.8
2018-May-22 03:00N 45°11' E 036°28'4 7.9
2018-May-22 02:30N 45°15' E 036°28'4 7.4
2018-May-22 02:00N 45°19' E 036°31'4 8.7
2018-May-22 01:30N 45°20' E 036°36'4 7.8
2018-May-22 01:00N 45°23' E 036°40'3 5.6
2018-May-22 00:30N 45°26' E 036°40'2 4.1
2018-May-22 00:01N 45°28' E 036°39'0 0.2
2018-May-21 23:30N 45°28' E 036°39'0 0.0
2018-May-21 23:00N 45°28' E 036°39'0 0.0
2018-May-21 22:30N 45°28' E 036°39'0 0.0
2018-May-21 21:45N 45°28' E 036°39'0 0.0
2018-May-21 21:30N 45°28' E 036°39'1 3.0
2018-May-21 21:00N 45°29' E 036°40'4 7.6
2018-May-21 20:30N 45°32' E 036°42'  
2018-May-17 02:56N 46°11' E 037°10'38 8.6
2018-May-16 22:32N 45°36' E 036°51'1 8.5
2018-May-16 22:26N 45°35' E 036°50'4 8.5
2018-May-16 22:00N 45°31' E 036°48'4 8.3
2018-May-16 21:30N 45°28' E 036°46'4 8.6
2018-May-16 21:00N 45°24' E 036°42'4 7.5
2018-May-16 20:31N 45°21' E 036°40'4 8.7
2018-May-16 20:00N 45°19' E 036°34'4 8.4
2018-May-16 19:30N 45°17' E 036°29'4 8.4
2018-May-16 19:00N 45°13' E 036°29'6 8.9
2018-May-16 18:23N 45°08' E 036°30'3 8.4
2018-May-16 18:00N 45°04' E 036°31'8 8.3
2018-May-16 17:04N 44°57' E 036°33'2 8.0
2018-May-16 16:47N 44°55' E 036°34'2 7.6
2018-May-16 16:28N 44°53' E 036°37'0 0.7
2018-May-16 15:58N 44°53' E 036°37'  
2018-May-13 23:40N 44°53' E 036°37'0 0.0
2018-May-13 23:13N 44°53' E 036°37'0 0.0
2018-May-13 22:55N 44°53' E 036°37'0 0.0
2018-May-13 21:46N 44°53' E 036°37'0 0.0
2018-May-13 21:22N 44°53' E 036°37'  
Track history (hours):
 
Tides and Currents Weather Stations Pressure Air Temp Water Temp Dewpoint Dewpoint Depression Visibility Wind Speed Wind Dir Waves Ship Positions

Astol

Last reported at 2018-May-22 06:05 UTC. Time now 2018-Jun-18 17:36 UTC.
Position N 44°47' E 036°26'.
Warning: this ship's position is 27 days out of date.

Length 114 m; draft 3.9 m.

Type: Cargo ship. MMSI: 667949000.

Date/timePositionNaut miles runAvg speedWind from/ knotsBaromVisibWave heightAir tempDewpointWater temp
2018-May-22 06:05N 44°47' E 036°26'1 7.9
2018-May-22 06:00N 44°48' E 036°27'9 7.9
2018-May-22 04:54N 44°56' E 036°29'4 8.1
2018-May-22 04:27N 45°00' E 036°29'4 8.1
2018-May-22 03:56N 45°04' E 036°30'4 7.9
2018-May-22 03:24N 45°08' E 036°29'3 7.8
2018-May-22 03:00N 45°11' E 036°28'4 7.9
2018-May-22 02:30N 45°15' E 036°28'4 7.4
2018-May-22 02:00N 45°19' E 036°31'4 8.7
2018-May-22 01:30N 45°20' E 036°36'4 7.8
2018-May-22 01:00N 45°23' E 036°40'3 5.6
2018-May-22 00:30N 45°26' E 036°40'2 4.1
2018-May-22 00:01N 45°28' E 036°39'0 0.2
2018-May-21 23:30N 45°28' E 036°39'0 0.0
2018-May-21 23:00N 45°28' E 036°39'0 0.0
2018-May-21 22:30N 45°28' E 036°39'0 0.0
2018-May-21 21:45N 45°28' E 036°39'0 0.0
2018-May-21 21:30N 45°28' E 036°39'1 3.0
2018-May-21 21:00N 45°29' E 036°40'4 7.6
2018-May-21 20:30N 45°32' E 036°42'  
2018-May-17 02:56N 46°11' E 037°10'38 8.6
2018-May-16 22:32N 45°36' E 036°51'1 8.5
2018-May-16 22:26N 45°35' E 036°50'4 8.5
2018-May-16 22:00N 45°31' E 036°48'4 8.3
2018-May-16 21:30N 45°28' E 036°46'4 8.6
2018-May-16 21:00N 45°24' E 036°42'4 7.5
2018-May-16 20:31N 45°21' E 036°40'4 8.7
2018-May-16 20:00N 45°19' E 036°34'4 8.4
2018-May-16 19:30N 45°17' E 036°29'4 8.4
2018-May-16 19:00N 45°13' E 036°29'6 8.9
2018-May-16 18:23N 45°08' E 036°30'3 8.4
2018-May-16 18:00N 45°04' E 036°31'8 8.3
2018-May-16 17:04N 44°57' E 036°33'2 8.0
2018-May-16 16:47N 44°55' E 036°34'2 7.6
2018-May-16 16:28N 44°53' E 036°37'0 0.7
2018-May-16 15:58N 44°53' E 036°37'  
2018-May-13 23:40N 44°53' E 036°37'0 0.0
2018-May-13 23:13N 44°53' E 036°37'0 0.0
2018-May-13 22:55N 44°53' E 036°37'0 0.0
2018-May-13 21:46N 44°53' E 036°37'0 0.0
2018-May-13 21:22N 44°53' E 036°37'  

Dump ship's entire track history